Time;durP1;ratioP1;P1;durP2;ratioP2;P2;SDS_P1;SDS_P2;PMS_P1;PMS_P2;Temp;Humidity;BMP_temperature;BMP_pressure;BME280_temperature;BME280_humidity;BME280_pressure;Samples;Min_cycle;Max_cycle;Signal;HPM_P1;HPM_P2
2023/08/02 00:01:23;;;;;;;7.80;0.90;;;;;;;15.47;88.94;99081.07;110291;1270;22180;-57
2023/08/02 00:03:54;;;;;;;7.30;1.10;;;;;;;15.44;89.09;99076.98;110271;1276;22418;-57
2023/08/02 00:06:27;;;;;;;8.90;1.10;;;;;;;15.42;89.11;99082.92;110273;1270;22150;-57
2023/08/02 00:08:58;;;;;;;16.30;1.40;;;;;;;15.41;89.31;99085.89;110279;1276;22382;-57
2023/08/02 00:11:29;;;;;;;13.90;1.30;;;;;;;15.38;89.35;99086.88;110265;1276;22237;-58
2023/08/02 00:13:59;;;;;;;12.60;1.20;;;;;;;15.36;89.20;99088.86;110299;1276;22189;-56
2023/08/02 00:16:30;;;;;;;11.40;1.30;;;;;;;15.36;89.33;99090.09;110221;1276;22223;-57
2023/08/02 00:19:01;;;;;;;9.50;1.60;;;;;;;15.32;89.26;99087.91;110274;1276;22242;-56
2023/08/02 00:21:32;;;;;;;12.00;1.10;;;;;;;15.29;89.49;99092.10;110243;1276;22201;-57
2023/08/02 00:24:03;;;;;;;16.30;1.10;;;;;;;15.26;89.51;99090.05;110283;1276;22347;-56
2023/08/02 00:26:34;;;;;;;14.40;1.60;;;;;;;15.24;89.51;99091.98;110230;1273;22272;-56
2023/08/02 00:29:05;;;;;;;11.20;1.20;;;;;;;15.22;89.52;99094.67;110277;1270;22205;-57
2023/08/02 00:31:36;;;;;;;12.50;1.40;;;;;;;15.18;89.60;99101.40;110265;1276;22278;-57
2023/08/02 00:34:07;;;;;;;14.70;1.40;;;;;;;15.16;89.54;99099.91;110278;1276;23695;-57
2023/08/02 00:36:38;;;;;;;7.80;1.30;;;;;;;15.14;89.77;99095.45;110263;1270;22186;-56
2023/08/02 00:39:09;;;;;;;7.50;1.40;;;;;;;15.11;89.83;99100.91;110231;1276;23169;-57
2023/08/02 00:41:40;;;;;;;14.60;1.20;;;;;;;15.09;89.89;99103.09;110263;1270;22151;-57
2023/08/02 00:44:11;;;;;;;18.60;1.10;;;;;;;15.09;89.95;99099.77;110269;1269;22340;-55
2023/08/02 00:46:42;;;;;;;11.50;1.40;;;;;;;15.09;89.88;99098.96;110267;1271;23525;-57
2023/08/02 00:49:13;;;;;;;16.50;2.20;;;;;;;15.10;89.94;99101.50;110254;1265;22864;-57
2023/08/02 00:51:44;;;;;;;18.20;3.70;;;;;;;15.07;89.92;99102.72;110294;1265;22329;-56
2023/08/02 00:54:15;;;;;;;20.20;3.60;;;;;;;15.06;89.90;99096.96;110273;1276;22927;-55
2023/08/02 00:56:46;;;;;;;16.50;3.30;;;;;;;15.07;89.83;99097.36;110295;1267;22214;-58
2023/08/02 00:59:17;;;;;;;16.90;3.80;;;;;;;15.07;89.80;99098.13;110277;1276;22210;-57
2023/08/02 01:01:48;;;;;;;16.10;2.50;;;;;;;15.07;89.76;99101.29;110265;1270;22163;-57
2023/08/02 01:04:19;;;;;;;13.60;2.50;;;;;;;15.06;89.74;99101.57;110255;1270;22400;-56
2023/08/02 01:07:00;;;;;;;16.50;2.20;;;;;;;15.02;89.72;99095.09;110288;1270;23010;-54
2023/08/02 01:09:36;;;;;;;7.70;1.20;;;;;;;15.00;89.80;99102.64;110222;1271;22199;-56
2023/08/02 01:12:10;;;;;;;9.40;1.20;;;;;;;14.97;89.80;99098.55;110247;1276;22238;-55
2023/08/02 01:14:44;;;;;;;11.70;1.60;;;;;;;14.96;89.80;99099.80;110248;1276;22642;-57
2023/08/02 01:17:16;;;;;;;8.60;1.10;;;;;;;14.95;89.82;99103.95;110256;1276;22193;-57
2023/08/02 01:19:47;;;;;;;9.20;1.10;;;;;;;14.93;89.86;99108.89;110258;1276;22162;-56
2023/08/02 01:22:18;;;;;;;5.40;0.90;;;;;;;14.91;89.70;99107.70;110273;1270;22221;-57
2023/08/02 01:24:49;;;;;;;5.80;1.40;;;;;;;14.88;89.69;99105.02;110272;1276;22961;-55
2023/08/02 01:27:25;;;;;;;8.20;1.00;;;;;;;14.88;89.77;99102.95;110263;1276;22210;-56
2023/08/02 01:29:58;;;;;;;7.40;1.40;;;;;;;14.86;89.75;99105.32;110220;1276;22985;-57
2023/08/02 01:32:29;;;;;;;8.80;1.00;;;;;;;14.83;89.50;99110.13;110241;1276;22461;-55
2023/08/02 01:35:00;;;;;;;6.60;0.90;;;;;;;14.81;89.55;99112.20;110246;1276;22173;-55
2023/08/02 01:37:32;;;;;;;9.00;0.90;;;;;;;14.79;89.41;99112.50;110214;1276;22175;-55
2023/08/02 01:40:03;;;;;;;5.50;0.90;;;;;;;14.77;89.29;99118.55;110270;1276;22197;-58
2023/08/02 01:42:33;;;;;;;11.90;1.60;;;;;;;14.72;88.93;99118.82;110229;1276;22262;-57
2023/08/02 01:45:05;;;;;;;6.30;0.90;;;;;;;14.66;88.89;99119.80;110257;1276;22205;-57
2023/08/02 01:47:35;;;;;;;7.50;1.10;;;;;;;14.59;88.92;99122.86;110229;1267;22256;-56
2023/08/02 01:50:08;;;;;;;7.60;1.10;;;;;;;14.53;88.99;99127.29;110249;1276;23120;-57
2023/08/02 01:52:38;;;;;;;6.10;1.20;;;;;;;14.50;89.07;99127.13;110235;1276;22269;-55
2023/08/02 01:55:10;;;;;;;8.70;1.30;;;;;;;14.48;89.03;99127.66;110263;1276;22243;-57
2023/08/02 01:57:41;;;;;;;8.30;1.10;;;;;;;14.45;88.96;99130.31;110253;1276;22711;-57
2023/08/02 02:00:14;;;;;;;9.50;1.60;;;;;;;14.45;89.00;99131.13;110266;1276;22346;-56
2023/08/02 02:02:44;;;;;;;6.00;1.10;;;;;;;14.44;88.92;99135.34;110245;1276;22229;-56
2023/08/02 02:05:15;;;;;;;8.90;1.10;;;;;;;14.43;88.98;99134.23;110227;1276;23355;-56
2023/08/02 02:07:47;;;;;;;9.90;1.30;;;;;;;14.40;89.21;99134.23;110257;1276;22246;-56
2023/08/02 02:10:17;;;;;;;10.60;1.80;;;;;;;14.36;89.51;99137.85;110267;1276;23267;-56
2023/08/02 02:12:48;;;;;;;12.80;1.60;;;;;;;14.34;89.51;99134.20;110263;1276;23244;-58
2023/08/02 02:15:19;;;;;;;8.80;1.20;;;;;;;14.34;89.89;99134.09;110257;1269;22392;-57
2023/08/02 02:17:51;;;;;;;9.50;1.50;;;;;;;14.33;90.11;99138.91;110252;1276;22269;-56
2023/08/02 02:20:21;;;;;;;15.70;1.60;;;;;;;14.32;89.94;99140.00;110234;1276;22181;-56
2023/08/02 02:22:53;;;;;;;15.30;1.60;;;;;;;14.31;90.01;99142.25;110234;1277;22363;-53
2023/08/02 02:25:24;;;;;;;8.70;1.80;;;;;;;14.31;89.85;99138.13;110248;1276;22353;-56
2023/08/02 02:27:55;;;;;;;13.50;2.10;;;;;;;14.33;90.13;99137.58;110245;1276;22652;-57
2023/08/02 02:30:26;;;;;;;13.50;1.60;;;;;;;14.33;90.04;99136.45;110252;1266;22232;-56
2023/08/02 02:32:56;;;;;;;13.40;1.60;;;;;;;14.31;89.88;99138.11;110113;1277;208493;-55
2023/08/02 02:35:27;;;;;;;12.70;1.10;;;;;;;14.29;89.96;99138.77;110242;1276;22244;-56
2023/08/02 02:37:58;;;;;;;10.10;1.10;;;;;;;14.30;89.85;99139.31;110231;1276;22182;-57
2023/08/02 02:40:29;;;;;;;10.20;2.20;;;;;;;14.28;89.93;99148.41;110258;1276;22189;-55
2023/08/02 02:43:00;;;;;;;17.20;1.40;;;;;;;14.26;89.93;99143.83;110267;1277;23338;-57
2023/08/02 02:45:30;;;;;;;13.60;1.50;;;;;;;14.24;90.01;99144.01;110236;1276;22202;-57
2023/08/02 02:48:01;;;;;;;15.50;1.70;;;;;;;14.22;89.88;99145.02;110234;1276;22186;-57
2023/08/02 02:50:32;;;;;;;11.40;1.30;;;;;;;14.20;90.03;99148.71;110237;1276;22137;-57
2023/08/02 02:53:03;;;;;;;9.90;1.80;;;;;;;14.18;90.23;99156.68;110249;1277;22246;-55
2023/08/02 02:55:33;;;;;;;11.10;1.60;;;;;;;14.16;90.42;99155.85;110222;1276;22968;-57
2023/08/02 02:58:04;;;;;;;10.70;1.50;;;;;;;14.15;90.44;99163.83;110223;1271;22287;-57
2023/08/02 03:00:35;;;;;;;8.40;1.30;;;;;;;14.12;90.36;99163.65;110260;1276;22794;-55
2023/08/02 03:03:06;;;;;;;11.50;1.50;;;;;;;14.11;90.44;99165.72;110244;1276;23440;-55
2023/08/02 03:05:38;;;;;;;10.80;1.70;;;;;;;14.10;90.39;99163.27;110259;1276;22161;-56
2023/08/02 03:08:08;;;;;;;12.10;1.60;;;;;;;14.10;90.47;99162.00;110231;1276;22278;-56
2023/08/02 03:10:39;;;;;;;13.50;1.60;;;;;;;14.08;90.50;99160.98;110254;1270;22341;-57
2023/08/02 03:13:10;;;;;;;13.50;1.60;;;;;;;14.08;90.63;99158.14;110265;1276;22235;-57
2023/08/02 03:15:41;;;;;;;11.80;1.90;;;;;;;14.05;90.53;99164.87;110261;1268;22118;-53
2023/08/02 03:18:11;;;;;;;16.70;2.10;;;;;;;14.03;90.30;99164.73;110259;1276;22334;-57
2023/08/02 03:20:43;;;;;;;11.60;1.50;;;;;;;13.98;90.42;99165.71;110249;1276;23055;-56
2023/08/02 03:23:13;;;;;;;9.30;1.40;;;;;;;13.95;90.39;99167.13;110248;1271;22161;-56
2023/08/02 03:25:44;;;;;;;7.00;1.10;;;;;;;13.93;90.42;99160.36;110250;1276;22197;-56
2023/08/02 03:28:15;;;;;;;15.20;2.00;;;;;;;13.89;90.39;99160.42;110243;1270;22443;-56
2023/08/02 03:30:46;;;;;;;13.50;1.40;;;;;;;13.84;90.40;99159.20;110214;1273;22176;-54
2023/08/02 03:33:17;;;;;;;10.80;1.70;;;;;;;13.81;90.33;99167.66;110285;1269;22336;-54
2023/08/02 03:35:48;;;;;;;12.00;1.30;;;;;;;13.77;90.47;99169.23;110242;1271;22208;-56
2023/08/02 03:38:18;;;;;;;7.90;1.10;;;;;;;13.73;90.46;99168.64;110239;1276;22334;-53
2023/08/02 03:40:49;;;;;;;10.80;1.60;;;;;;;13.70;90.52;99176.54;110268;1270;22217;-55
2023/08/02 03:43:20;;;;;;;10.10;1.60;;;;;;;13.65;90.34;99175.11;110254;1276;22253;-56
2023/08/02 03:45:51;;;;;;;10.20;1.60;;;;;;;13.63;90.47;99173.46;110272;1276;23452;-57
2023/08/02 03:48:21;;;;;;;8.20;1.20;;;;;;;13.62;90.56;99173.66;110273;1276;22191;-54
2023/08/02 03:50:52;;;;;;;10.50;1.70;;;;;;;13.62;90.62;99169.83;110262;1274;22317;-53
2023/08/02 03:53:24;;;;;;;7.00;1.20;;;;;;;13.61;90.73;99174.13;110276;1276;22137;-56
2023/08/02 03:55:55;;;;;;;8.40;1.20;;;;;;;13.61;90.74;99173.41;110284;1273;22201;-55
2023/08/02 03:58:26;;;;;;;11.00;1.30;;;;;;;13.62;90.94;99173.56;110253;1276;22933;-56
2023/08/02 04:00:56;;;;;;;5.40;1.10;;;;;;;13.62;91.01;99169.73;110276;1276;22650;-55
2023/08/02 04:03:28;;;;;;;9.00;1.20;;;;;;;13.62;90.96;99176.77;110184;1276;22179;-54
2023/08/02 04:05:58;;;;;;;13.60;1.20;;;;;;;13.61;91.07;99178.86;110274;1276;22150;-55
2023/08/02 04:08:29;;;;;;;10.70;1.30;;;;;;;13.62;91.22;99180.30;110263;1270;22194;-55
2023/08/02 04:11:05;;;;;;;7.30;1.10;;;;;;;13.64;91.36;99181.29;110265;1276;22260;-54
2023/08/02 04:13:36;;;;;;;7.70;1.20;;;;;;;13.65;91.81;99184.65;110273;1276;22165;-55
2023/08/02 04:16:07;;;;;;;10.80;1.10;;;;;;;13.66;92.11;99180.14;110263;1259;22222;-55
2023/08/02 04:18:38;;;;;;;5.80;1.00;;;;;;;13.69;92.35;99177.52;110261;1276;22185;-55
2023/08/02 04:21:08;;;;;;;5.40;0.90;;;;;;;13.71;92.36;99176.78;110261;1270;23114;-55
2023/08/02 04:23:39;;;;;;;10.40;1.60;;;;;;;13.75;92.41;99174.64;110262;1276;22196;-56
2023/08/02 04:26:13;;;;;;;5.70;1.00;;;;;;;13.80;92.78;99175.02;110245;1276;22256;-57
2023/08/02 04:28:45;;;;;;;9.30;1.10;;;;;;;13.85;93.12;99176.13;110241;1276;22179;-57
2023/08/02 04:31:16;;;;;;;9.50;1.90;;;;;;;13.89;93.01;99179.43;110286;1276;22421;-56
2023/08/02 04:33:46;;;;;;;7.10;1.10;;;;;;;13.94;93.18;99175.95;110264;1276;22214;-55
2023/08/02 04:36:17;;;;;;;11.80;1.10;;;;;;;14.00;93.59;99176.16;110228;1262;22314;-54
2023/08/02 04:38:48;;;;;;;11.10;1.20;;;;;;;14.05;93.57;99180.80;110250;1269;22251;-55
2023/08/02 04:41:19;;;;;;;7.70;1.00;;;;;;;14.11;93.88;99181.18;110258;1276;22930;-55
2023/08/02 04:43:50;;;;;;;6.00;0.90;;;;;;;14.14;94.13;99182.60;110263;1270;23451;-55
2023/08/02 04:46:22;;;;;;;7.80;1.20;;;;;;;14.20;94.51;99183.97;110201;1270;23422;-56
2023/08/02 04:48:53;;;;;;;11.20;1.30;;;;;;;14.26;94.87;99180.17;110231;1271;22221;-56
2023/08/02 04:51:24;;;;;;;5.80;1.10;;;;;;;14.35;95.00;99179.63;110267;1270;22238;-56
2023/08/02 04:53:54;;;;;;;12.40;2.20;;;;;;;14.42;95.12;99178.81;110253;1269;22275;-56
2023/08/02 04:56:25;;;;;;;6.00;1.00;;;;;;;14.51;95.15;99177.41;110268;1270;23183;-57
2023/08/02 04:58:56;;;;;;;7.00;1.00;;;;;;;14.60;95.32;99179.29;110264;1276;22221;-56
2023/08/02 05:01:27;;;;;;;5.80;1.10;;;;;;;14.72;95.50;99184.21;110286;1273;23571;-58
2023/08/02 05:03:57;;;;;;;6.10;1.10;;;;;;;14.81;95.65;99182.49;110280;1276;22351;-61
2023/08/02 05:06:28;;;;;;;6.70;1.20;;;;;;;14.92;95.95;99183.45;110229;1270;22202;-57
2023/08/02 05:09:01;;;;;;;12.40;1.30;;;;;;;15.04;95.62;99182.53;110185;1273;22184;-58
2023/08/02 05:11:32;;;;;;;8.60;1.10;;;;;;;15.14;95.65;99178.70;110227;1270;22950;-57
2023/08/02 05:14:03;;;;;;;8.50;1.20;;;;;;;15.23;95.59;99179.02;110257;1261;22201;-58
2023/08/02 05:16:35;;;;;;;8.80;1.20;;;;;;;15.31;95.41;99180.35;110254;1276;22262;-57
2023/08/02 05:19:06;;;;;;;4.90;1.00;;;;;;;15.40;95.41;99183.69;110263;1276;22150;-56
2023/08/02 05:21:37;;;;;;;9.30;1.10;;;;;;;15.48;95.47;99186.35;110189;1274;22253;-57
2023/08/02 05:24:07;;;;;;;8.20;1.00;;;;;;;15.55;95.35;99186.16;110211;1271;22386;-56
2023/08/02 05:26:38;;;;;;;8.20;1.10;;;;;;;15.62;95.41;99193.80;110221;1271;22150;-58
2023/08/02 05:29:09;;;;;;;3.50;1.00;;;;;;;15.70;95.72;99192.48;110219;1276;22156;-58
2023/08/02 05:31:41;;;;;;;7.40;1.30;;;;;;;15.78;95.62;99192.64;110208;1274;22310;-57
2023/08/02 05:34:11;;;;;;;9.40;1.30;;;;;;;15.87;95.50;99194.67;110252;1276;22196;-59
2023/08/02 05:36:42;;;;;;;4.70;1.10;;;;;;;15.98;95.59;99197.39;110255;1276;22159;-58
2023/08/02 05:39:13;;;;;;;9.70;1.50;;;;;;;16.07;95.53;99192.91;110266;1276;22334;-57
2023/08/02 05:41:44;;;;;;;8.80;1.10;;;;;;;16.15;95.67;99188.17;110264;1276;22420;-61
2023/08/02 05:44:14;;;;;;;4.30;1.00;;;;;;;16.27;95.52;99191.78;110246;1271;22334;-59
2023/08/02 05:46:46;;;;;;;7.20;0.90;;;;;;;16.36;95.26;99195.31;110237;1276;22332;-58
2023/08/02 05:49:16;;;;;;;8.10;1.20;;;;;;;16.46;95.13;99191.69;110273;1269;22340;-58
2023/08/02 05:51:48;;;;;;;5.10;0.90;;;;;;;16.52;94.87;99199.45;110270;1271;22242;-58
2023/08/02 05:54:20;;;;;;;5.90;1.00;;;;;;;16.60;94.69;99200.39;110243;1270;22261;-57
2023/08/02 05:56:51;;;;;;;5.30;1.10;;;;;;;16.68;94.75;99208.02;110262;1276;22365;-58
2023/08/02 05:59:22;;;;;;;5.20;1.20;;;;;;;16.79;94.73;99212.86;110243;1276;22178;-59
2023/08/02 06:01:53;;;;;;;9.20;1.10;;;;;;;16.88;94.26;99216.86;110237;1271;22358;-59
2023/08/02 06:04:23;;;;;;;4.90;1.00;;;;;;;16.95;94.30;99213.40;110255;1271;22208;-58
2023/08/02 06:06:54;;;;;;;4.40;0.80;;;;;;;17.05;93.99;99213.24;110239;1257;23032;-62
2023/08/02 06:09:25;;;;;;;6.90;0.90;;;;;;;17.14;94.14;99217.63;110201;1261;22809;-56
2023/08/02 06:11:56;;;;;;;11.90;1.10;;;;;;;17.24;93.74;99221.44;110270;1269;22265;-60
2023/08/02 06:14:27;;;;;;;7.40;1.10;;;;;;;17.34;94.01;99222.17;110251;1270;22244;-58
2023/08/02 06:16:58;;;;;;;8.10;1.00;;;;;;;17.43;93.72;99217.52;110284;1273;22373;-58
2023/08/02 06:19:30;;;;;;;6.70;1.00;;;;;;;17.52;93.81;99214.09;110264;1270;22198;-59
2023/08/02 06:22:01;;;;;;;5.00;0.90;;;;;;;17.65;93.28;99216.91;110260;1273;23106;-59
2023/08/02 06:24:32;;;;;;;4.00;0.80;;;;;;;17.73;92.56;99223.41;110275;1276;22332;-57
2023/08/02 06:27:03;;;;;;;4.60;0.90;;;;;;;17.81;92.61;99226.33;110283;1276;22262;-57
2023/08/02 06:29:34;;;;;;;4.80;0.90;;;;;;;17.91;92.63;99222.79;110220;1276;23190;-58
2023/08/02 06:32:06;;;;;;;3.70;0.80;;;;;;;17.99;92.54;99221.48;110252;1271;22238;-58
2023/08/02 06:34:36;;;;;;;6.00;1.10;;;;;;;18.09;91.98;99229.80;110266;1273;23072;-57
2023/08/02 06:37:08;;;;;;;3.30;0.80;;;;;;;18.16;91.69;99232.66;110266;1276;22234;-58
2023/08/02 06:39:39;;;;;;;3.50;0.70;;;;;;;18.25;91.29;99226.80;110244;1276;23669;-59
2023/08/02 06:42:10;;;;;;;6.70;1.10;;;;;;;18.34;91.26;99225.58;110256;1270;22263;-58
2023/08/02 06:44:41;;;;;;;4.60;0.70;;;;;;;18.43;90.65;99219.77;110269;1271;22455;-57
2023/08/02 06:47:12;;;;;;;4.40;0.90;;;;;;;18.49;90.76;99224.14;110241;1276;23534;-57
2023/08/02 06:49:42;;;;;;;5.10;1.10;;;;;;;18.58;90.04;99223.54;110257;1271;22958;-58
2023/08/02 06:52:13;;;;;;;5.70;1.00;;;;;;;18.65;89.96;99216.96;110307;1276;22347;-59
2023/08/02 06:54:44;;;;;;;4.00;1.10;;;;;;;18.73;89.89;99213.38;110268;1276;22121;-58
2023/08/02 06:57:15;;;;;;;7.70;0.90;;;;;;;18.81;89.44;99204.29;110296;1275;22333;-58
2023/08/02 06:59:47;;;;;;;3.30;0.80;;;;;;;18.88;88.49;99201.26;110251;1273;22354;-59
2023/08/02 07:02:17;;;;;;;3.30;0.90;;;;;;;18.91;88.24;99198.02;110295;1271;22366;-58
2023/08/02 07:04:48;;;;;;;3.80;0.90;;;;;;;18.96;87.98;99193.84;110306;1274;22424;-58
2023/08/02 07:07:19;;;;;;;3.40;0.80;;;;;;;19.02;87.01;99198.02;110303;1268;22506;-57
2023/08/02 07:09:51;;;;;;;3.30;0.80;;;;;;;19.08;86.48;99203.61;110273;1276;22360;-58
2023/08/02 07:12:22;;;;;;;4.10;0.90;;;;;;;19.13;86.69;99205.84;110286;1276;22328;-57
2023/08/02 07:14:53;;;;;;;3.50;0.90;;;;;;;19.23;87.00;99198.84;110282;1271;22193;-58
2023/08/02 07:17:24;;;;;;;2.40;0.90;;;;;;;19.32;86.27;99186.81;110293;1270;23205;-58
2023/08/02 07:19:55;;;;;;;6.40;0.80;;;;;;;19.42;86.35;99190.02;110231;1271;22295;-58
2023/08/02 07:22:26;;;;;;;3.10;0.70;;;;;;;19.49;84.26;99185.64;110288;1270;22237;-58
2023/08/02 07:24:57;;;;;;;3.30;0.70;;;;;;;19.53;83.39;99186.70;110241;1263;22912;-58
2023/08/02 07:27:28;;;;;;;5.10;0.80;;;;;;;19.52;82.50;99193.98;110299;1261;22985;-59
2023/08/02 07:29:59;;;;;;;4.60;0.80;;;;;;;19.54;81.78;99200.52;110273;1271;23124;-58
2023/08/02 07:32:29;;;;;;;3.00;0.80;;;;;;;19.59;82.09;99198.96;110287;1269;22206;-59
2023/08/02 07:35:01;;;;;;;4.20;0.80;;;;;;;19.65;81.63;99194.62;110261;1271;22489;-59
2023/08/02 07:37:32;;;;;;;6.50;0.80;;;;;;;19.72;80.85;99186.04;110187;1271;22222;-59
2023/08/02 07:40:03;;;;;;;5.10;0.70;;;;;;;19.77;80.02;99181.47;110359;1276;23081;-58
2023/08/02 07:42:33;;;;;;;3.80;0.80;;;;;;;19.83;79.74;99180.30;110317;1276;22332;-59
2023/08/02 07:45:10;;;;;;;9.70;1.40;;;;;;;19.90;79.58;99185.46;110327;1273;22273;-59
2023/08/02 07:47:41;;;;;;;7.60;0.90;;;;;;;19.98;79.66;99185.52;110343;1271;22332;-59
2023/08/02 07:50:12;;;;;;;3.80;0.70;;;;;;;20.08;79.20;99188.48;110284;1269;22175;-60
2023/08/02 07:52:43;;;;;;;2.80;0.50;;;;;;;20.21;79.26;99192.88;110323;1270;23048;-60
2023/08/02 07:55:14;;;;;;;4.20;1.00;;;;;;;20.34;78.66;99193.16;110307;1270;22398;-60
2023/08/02 07:57:45;;;;;;;3.90;0.70;;;;;;;20.44;77.61;99191.02;110269;1269;22277;-60
2023/08/02 08:00:17;;;;;;;4.00;0.80;;;;;;;20.44;76.28;99189.30;110266;1269;22480;-60
2023/08/02 08:02:48;;;;;;;2.70;0.70;;;;;;;20.37;75.61;99192.46;110330;1276;23454;-60
2023/08/02 08:05:19;;;;;;;4.80;0.80;;;;;;;20.30;75.33;99190.71;110336;1273;22153;-60
2023/08/02 08:07:50;;;;;;;3.60;0.70;;;;;;;20.29;75.49;99184.52;110265;1271;22181;-60
2023/08/02 08:10:21;;;;;;;3.80;0.80;;;;;;;20.35;75.58;99187.34;110375;1267;22334;-60
2023/08/02 08:12:51;;;;;;;1.90;0.60;;;;;;;20.40;75.39;99193.20;110335;1263;22415;-60
2023/08/02 08:15:22;;;;;;;5.20;0.80;;;;;;;20.41;74.84;99193.70;110319;1271;22152;-60
2023/08/02 08:17:53;;;;;;;4.60;0.70;;;;;;;20.44;74.95;99195.21;110293;1275;22169;-59
2023/08/02 08:20:24;;;;;;;3.30;0.70;;;;;;;20.50;74.47;99186.45;110266;1271;22287;-59
2023/08/02 08:22:55;;;;;;;4.50;0.70;;;;;;;20.64;75.21;99182.88;110320;1271;22267;-60
2023/08/02 08:25:26;;;;;;;4.30;0.70;;;;;;;20.83;74.87;99183.31;110324;1270;22314;-59
2023/08/02 08:27:57;;;;;;;5.80;0.80;;;;;;;20.98;74.89;99179.64;110245;1270;23038;-59
2023/08/02 08:30:28;;;;;;;4.00;0.70;;;;;;;21.13;74.71;99179.83;110237;1271;22751;-59
2023/08/02 08:32:59;;;;;;;2.70;0.70;;;;;;;21.26;73.60;99177.02;110299;1276;22620;-60
2023/08/02 08:35:30;;;;;;;7.30;0.90;;;;;;;21.38;73.30;99182.98;110336;1269;22896;-60
2023/08/02 08:38:00;;;;;;;3.50;0.80;;;;;;;21.50;72.39;99186.61;110339;1269;22212;-58
2023/08/02 08:40:32;;;;;;;4.80;0.90;;;;;;;21.63;72.29;99183.61;110340;1270;22280;-57
2023/08/02 08:43:03;;;;;;;4.50;1.00;;;;;;;21.75;71.64;99182.62;110296;1273;22194;-56
2023/08/02 08:45:36;;;;;;;4.70;0.70;;;;;;;21.84;71.19;99179.70;110366;1276;23235;-58
2023/08/02 08:48:08;;;;;;;7.00;0.90;;;;;;;21.88;70.86;99178.66;110329;1276;22643;-59
2023/08/02 08:50:42;;;;;;;2.90;0.70;;;;;;;21.88;70.28;99184.02;110257;1276;22372;-60
2023/08/02 08:53:20;;;;;;;3.20;0.80;;;;;;;21.85;69.96;99181.08;110306;1276;22312;-60
2023/08/02 08:55:52;;;;;;;10.10;0.70;;;;;;;21.89;69.81;99171.02;110277;1275;22192;-59
2023/08/02 08:58:23;;;;;;;4.50;0.80;;;;;;;21.95;69.67;99166.45;110316;1271;22415;-58
2023/08/02 09:00:58;;;;;;;3.30;0.60;;;;;;;22.02;69.31;99168.45;110298;1276;23353;-58
2023/08/02 09:03:28;;;;;;;6.10;0.90;;;;;;;22.09;68.48;99162.77;110327;1276;22210;-58
2023/08/02 09:06:01;;;;;;;3.70;0.80;;;;;;;22.15;68.23;99162.59;110329;1276;22151;-58
2023/08/02 09:08:43;;;;;;;2.40;0.60;;;;;;;22.19;67.88;99164.59;110325;1271;22212;-58
2023/08/02 09:11:15;;;;;;;6.20;0.90;;;;;;;22.25;67.14;99164.67;110335;1274;23302;-58
2023/08/02 09:13:46;;;;;;;6.90;0.90;;;;;;;22.26;67.03;99161.39;110279;1276;23223;-58
2023/08/02 09:16:18;;;;;;;7.50;1.10;;;;;;;22.27;66.65;99160.13;110359;1273;22924;-57
2023/08/02 09:18:50;;;;;;;8.50;1.30;;;;;;;22.29;66.41;99159.47;110339;1276;22254;-58
2023/08/02 09:21:26;;;;;;;6.00;0.80;;;;;;;22.28;65.97;99162.66;110346;1270;22253;-57
2023/08/02 09:24:00;;;;;;;4.80;0.70;;;;;;;22.21;65.32;99157.85;110372;1275;22144;-57
2023/08/02 09:26:31;;;;;;;3.20;0.60;;;;;;;22.18;65.15;99152.43;110237;1269;22876;-58
2023/08/02 09:29:04;;;;;;;4.10;0.80;;;;;;;22.22;65.65;99152.62;110285;1273;22212;-56
2023/08/02 09:31:36;;;;;;;2.30;0.70;;;;;;;22.25;65.14;99151.17;110388;1276;22318;-57
2023/08/02 09:34:07;;;;;;;5.90;0.60;;;;;;;22.27;64.68;99145.39;110342;1275;22949;-61
2023/08/02 09:36:38;;;;;;;3.00;0.70;;;;;;;22.31;64.86;99150.09;110256;1274;22246;-61
2023/08/02 09:39:15;;;;;;;4.40;1.10;;;;;;;22.39;64.44;99145.20;110300;1269;22313;-60
2023/08/02 09:41:46;;;;;;;3.40;0.60;;;;;;;22.48;64.15;99146.15;110251;1269;22305;-60
2023/08/02 09:44:23;;;;;;;4.50;0.60;;;;;;;22.58;63.97;99147.52;110355;1275;22512;-60
2023/08/02 09:46:54;;;;;;;2.30;0.40;;;;;;;22.71;64.10;99149.41;110336;1273;22521;-60
2023/08/02 09:49:25;;;;;;;2.00;0.70;;;;;;;22.80;63.04;99151.55;110326;1274;22265;-60
2023/08/02 09:51:55;;;;;;;2.70;0.60;;;;;;;22.81;62.75;99151.70;110338;1269;22174;-61
2023/08/02 09:54:26;;;;;;;3.70;0.70;;;;;;;22.83;62.69;99145.41;110317;1276;22331;-61
2023/08/02 09:56:57;;;;;;;3.00;0.60;;;;;;;22.83;62.44;99140.45;110303;1276;22231;-60
2023/08/02 09:59:31;;;;;;;1.90;0.50;;;;;;;22.82;62.25;99136.90;110318;1274;22926;-60
2023/08/02 10:02:04;;;;;;;3.80;0.50;;;;;;;22.86;62.49;99134.21;110348;1275;22260;-61
2023/08/02 10:04:35;;;;;;;3.60;0.50;;;;;;;22.91;61.80;99127.39;110260;1276;23521;-60
2023/08/02 10:07:13;;;;;;;2.30;0.60;;;;;;;22.94;62.16;99130.79;110320;1276;22194;-60
2023/08/02 10:09:44;;;;;;;4.80;0.70;;;;;;;23.01;62.48;99132.61;110334;1276;22183;-60
2023/08/02 10:12:18;;;;;;;2.70;0.60;;;;;;;23.09;61.66;99128.36;110227;1269;22331;-60
2023/08/02 10:14:50;;;;;;;4.70;0.80;;;;;;;23.14;61.34;99127.10;110305;1273;22152;-60
2023/08/02 10:17:22;;;;;;;2.60;0.50;;;;;;;23.16;61.17;99127.84;110317;1272;22922;-60
2023/08/02 10:19:53;;;;;;;3.30;0.70;;;;;;;23.11;60.78;99125.18;110381;1273;23286;-61
2023/08/02 10:22:24;;;;;;;3.80;0.70;;;;;;;23.07;60.74;99121.55;110351;1276;22244;-61
2023/08/02 10:24:55;;;;;;;1.60;0.50;;;;;;;23.04;60.25;99114.21;110323;1270;22113;-61
2023/08/02 10:27:28;;;;;;;3.60;0.50;;;;;;;23.04;60.24;99114.59;110286;1270;22405;-60
2023/08/02 10:29:59;;;;;;;3.00;0.50;;;;;;;23.08;59.84;99112.66;110337;1271;22280;-60
2023/08/02 10:32:30;;;;;;;3.10;0.40;;;;;;;23.18;59.89;99111.30;110283;1270;22530;-60
2023/08/02 10:35:01;;;;;;;4.30;1.00;;;;;;;23.31;59.62;99110.48;110263;1270;22296;-60
2023/08/02 10:37:55;;;;;;;2.60;0.50;;;;;;;23.44;59.37;99109.34;110307;1276;22376;-59
2023/08/02 10:40:46;;;;;;;3.40;0.80;;;;;;;23.56;59.42;99107.55;110354;1276;22403;-60
2023/08/02 10:43:16;;;;;;;3.10;0.50;;;;;;;23.64;58.36;99106.35;110313;1271;23099;-59
2023/08/02 10:46:17;;;;;;;5.10;0.50;;;;;;;23.69;57.99;99107.42;110298;1276;22138;-59
2023/08/02 10:48:48;;;;;;;3.30;0.40;;;;;;;23.68;57.59;99103.77;110182;1271;22933;-59
2023/08/02 10:51:37;;;;;;;5.60;0.60;;;;;;;23.72;57.66;99104.69;110297;1276;22385;-60
2023/08/02 10:54:19;;;;;;;2.00;0.40;;;;;;;23.83;57.47;99104.94;110263;1271;21791;-60
2023/08/02 10:57:16;;;;;;;3.10;0.50;;;;;;;23.94;56.91;99094.95;110236;1269;22983;-59
2023/08/02 10:59:47;;;;;;;2.20;0.60;;;;;;;24.02;56.53;99087.16;109871;1274;22304;-59
2023/08/02 11:02:19;;;;;;;4.40;0.40;;;;;;;24.13;56.47;99088.80;109854;1273;22409;-60
2023/08/02 11:04:49;;;;;;;5.40;0.40;;;;;;;24.19;55.90;99088.94;109828;1280;22326;-60
2023/08/02 11:07:21;;;;;;;5.70;0.40;;;;;;;24.21;55.61;99084.27;109834;1272;22408;-60
2023/08/02 11:09:54;;;;;;;1.70;0.30;;;;;;;24.22;55.06;99083.02;109901;1279;22923;-60
2023/08/02 11:12:26;;;;;;;0.90;0.30;;;;;;;24.19;55.07;99082.26;109900;1277;22195;-60
2023/08/02 11:14:58;;;;;;;1.50;0.30;;;;;;;24.14;54.83;99077.90;109849;1274;23634;-60
2023/08/02 11:17:29;;;;;;;5.10;0.50;;;;;;;24.15;54.78;99074.23;109868;1274;23118;-61
2023/08/02 11:20:01;;;;;;;2.80;0.40;;;;;;;24.13;54.31;99071.13;109840;1274;22230;-60
2023/08/02 11:22:36;;;;;;;5.70;0.40;;;;;;;24.08;54.30;99069.95;109875;1276;22203;-60
2023/08/02 11:25:09;;;;;;;2.60;0.30;;;;;;;24.03;54.38;99063.98;109854;1274;22254;-60
2023/08/02 11:27:40;;;;;;;2.80;0.40;;;;;;;24.01;54.29;99058.40;109782;1274;22509;-60
2023/08/02 11:30:11;;;;;;;2.00;0.30;;;;;;;24.03;54.45;99053.88;109880;1274;22317;-62
2023/08/02 11:32:46;;;;;;;1.10;0.30;;;;;;;24.08;54.03;99054.55;109922;1280;22279;-62
2023/08/02 11:35:21;;;;;;;1.90;0.30;;;;;;;24.13;53.43;99052.70;109986;1272;22438;-62
2023/08/02 11:37:52;;;;;;;1.50;0.30;;;;;;;24.13;53.85;99056.57;110268;1276;23328;-62
2023/08/02 11:40:23;;;;;;;2.30;0.40;;;;;;;24.16;54.19;99058.12;110295;1270;22258;-62
2023/08/02 11:42:54;;;;;;;1.90;0.40;;;;;;;24.25;54.08;99051.77;110167;1269;22241;-62
2023/08/02 11:45:32;;;;;;;2.90;0.50;;;;;;;24.30;53.19;99046.55;110297;1276;22195;-62